sensor_id;sensor_type;location;lat;lon;timestamp;P1;durP1;ratioP1;P2;durP2;ratioP2
946;SDS011;460;48.734;9.152;2022-10-30T00:01:40;1.73;;;1.63;;
946;SDS011;460;48.734;9.152;2022-10-30T00:04:07;1.13;;;1.00;;
946;SDS011;460;48.734;9.152;2022-10-30T00:06:34;3.13;;;1.37;;
946;SDS011;460;48.734;9.152;2022-10-30T00:09:02;2.07;;;1.70;;
946;SDS011;460;48.734;9.152;2022-10-30T00:11:29;1.37;;;1.27;;
946;SDS011;460;48.734;9.152;2022-10-30T00:13:56;1.73;;;1.63;;
946;SDS011;460;48.734;9.152;2022-10-30T00:16:23;3.50;;;1.27;;
946;SDS011;460;48.734;9.152;2022-10-30T00:18:50;8.20;;;1.00;;
946;SDS011;460;48.734;9.152;2022-10-30T00:21:18;1.60;;;1.50;;
946;SDS011;460;48.734;9.152;2022-10-30T00:23:45;4.53;;;1.60;;
946;SDS011;460;48.734;9.152;2022-10-30T00:26:13;1.57;;;1.23;;
946;SDS011;460;48.734;9.152;2022-10-30T00:28:41;2.40;;;1.70;;
946;SDS011;460;48.734;9.152;2022-10-30T00:31:08;2.00;;;1.87;;
946;SDS011;460;48.734;9.152;2022-10-30T00:33:35;0.90;;;0.90;;
946;SDS011;460;48.734;9.152;2022-10-30T00:36:02;2.33;;;2.13;;
946;SDS011;460;48.734;9.152;2022-10-30T00:38:29;1.57;;;1.47;;
946;SDS011;460;48.734;9.152;2022-10-30T00:40:57;2.60;;;1.43;;
946;SDS011;460;48.734;9.152;2022-10-30T00:43:29;0.90;;;0.90;;
946;SDS011;460;48.734;9.152;2022-10-30T00:45:59;2.73;;;2.00;;
946;SDS011;460;48.734;9.152;2022-10-30T00:48:31;3.53;;;2.23;;
946;SDS011;460;48.734;9.152;2022-10-30T00:50:58;1.50;;;1.27;;
946;SDS011;460;48.734;9.152;2022-10-30T00:53:26;2.20;;;2.00;;
946;SDS011;460;48.734;9.152;2022-10-30T00:55:55;1.63;;;1.50;;
946;SDS011;460;48.734;9.152;2022-10-30T00:58:27;2.50;;;1.80;;
946;SDS011;460;48.734;9.152;2022-10-30T01:00:58;2.13;;;1.93;;
946;SDS011;460;48.734;9.152;2022-10-30T01:03:29;1.10;;;1.00;;
946;SDS011;460;48.734;9.152;2022-10-30T01:05:57;4.63;;;1.53;;
946;SDS011;460;48.734;9.152;2022-10-30T01:08:27;1.50;;;1.40;;
946;SDS011;460;48.734;9.152;2022-10-30T01:10:54;3.60;;;2.40;;
946;SDS011;460;48.734;9.152;2022-10-30T01:13:23;1.40;;;1.07;;
946;SDS011;460;48.734;9.152;2022-10-30T01:15:56;1.30;;;1.13;;
946;SDS011;460;48.734;9.152;2022-10-30T01:18:39;2.40;;;1.33;;
946;SDS011;460;48.734;9.152;2022-10-30T01:21:18;1.40;;;1.30;;
946;SDS011;460;48.734;9.152;2022-10-30T01:24:03;1.73;;;1.10;;
946;SDS011;460;48.734;9.152;2022-10-30T01:26:40;1.33;;;1.13;;
946;SDS011;460;48.734;9.152;2022-10-30T01:29:20;1.73;;;1.33;;
946;SDS011;460;48.734;9.152;2022-10-30T01:32:09;2.97;;;1.77;;
946;SDS011;460;48.734;9.152;2022-10-30T01:34:43;2.60;;;1.63;;
946;SDS011;460;48.734;9.152;2022-10-30T01:37:15;1.50;;;1.40;;
946;SDS011;460;48.734;9.152;2022-10-30T01:39:45;1.53;;;1.37;;
946;SDS011;460;48.734;9.152;2022-10-30T01:45:12;1.20;;;1.10;;
946;SDS011;460;48.734;9.152;2022-10-30T01:47:46;4.43;;;2.10;;
946;SDS011;460;48.734;9.152;2022-10-30T01:50:25;1.70;;;1.50;;
946;SDS011;460;48.734;9.152;2022-10-30T01:53:02;2.83;;;1.57;;
946;SDS011;460;48.734;9.152;2022-10-30T01:55:35;1.43;;;1.33;;
946;SDS011;460;48.734;9.152;2022-10-30T01:58:11;2.20;;;1.47;;
946;SDS011;460;48.734;9.152;2022-10-30T02:00:42;1.47;;;1.23;;
946;SDS011;460;48.734;9.152;2022-10-30T02:03:14;2.40;;;1.93;;
946;SDS011;460;48.734;9.152;2022-10-30T02:05:42;1.80;;;1.53;;
946;SDS011;460;48.734;9.152;2022-10-30T02:08:12;1.23;;;1.13;;
946;SDS011;460;48.734;9.152;2022-10-30T02:10:40;2.10;;;1.90;;
946;SDS011;460;48.734;9.152;2022-10-30T02:13:09;3.60;;;1.63;;
946;SDS011;460;48.734;9.152;2022-10-30T02:15:36;1.97;;;1.77;;
946;SDS011;460;48.734;9.152;2022-10-30T02:18:04;3.00;;;2.43;;
946;SDS011;460;48.734;9.152;2022-10-30T02:20:34;1.97;;;1.40;;
946;SDS011;460;48.734;9.152;2022-10-30T02:23:02;1.60;;;1.50;;
946;SDS011;460;48.734;9.152;2022-10-30T02:25:30;4.70;;;1.80;;
946;SDS011;460;48.734;9.152;2022-10-30T02:27:58;2.50;;;2.20;;
946;SDS011;460;48.734;9.152;2022-10-30T02:30:25;2.20;;;1.70;;
946;SDS011;460;48.734;9.152;2022-10-30T02:32:52;2.27;;;1.67;;
946;SDS011;460;48.734;9.152;2022-10-30T02:35:19;1.63;;;1.53;;
946;SDS011;460;48.734;9.152;2022-10-30T02:37:48;3.28;;;1.77;;
946;SDS011;460;48.734;9.152;2022-10-30T02:40:16;2.40;;;1.70;;
946;SDS011;460;48.734;9.152;2022-10-30T02:42:43;3.30;;;1.73;;
946;SDS011;460;48.734;9.152;2022-10-30T02:45:10;2.03;;;1.80;;
946;SDS011;460;48.734;9.152;2022-10-30T02:47:37;9.00;;;2.07;;
946;SDS011;460;48.734;9.152;2022-10-30T02:50:04;4.23;;;2.10;;
946;SDS011;460;48.734;9.152;2022-10-30T02:52:34;2.57;;;2.37;;
946;SDS011;460;48.734;9.152;2022-10-30T02:55:02;2.40;;;2.17;;
946;SDS011;460;48.734;9.152;2022-10-30T02:57:30;1.73;;;1.63;;
946;SDS011;460;48.734;9.152;2022-10-30T02:59:57;1.83;;;1.70;;
946;SDS011;460;48.734;9.152;2022-10-30T03:02:26;1.90;;;1.80;;
946;SDS011;460;48.734;9.152;2022-10-30T03:04:53;2.67;;;2.03;;
946;SDS011;460;48.734;9.152;2022-10-30T03:07:20;2.87;;;1.90;;
946;SDS011;460;48.734;9.152;2022-10-30T03:09:46;2.13;;;1.90;;
946;SDS011;460;48.734;9.152;2022-10-30T03:12:15;7.60;;;2.30;;
946;SDS011;460;48.734;9.152;2022-10-30T03:14:42;2.33;;;2.13;;
946;SDS011;460;48.734;9.152;2022-10-30T03:17:09;4.43;;;3.13;;
946;SDS011;460;48.734;9.152;2022-10-30T03:19:36;3.87;;;2.40;;
946;SDS011;460;48.734;9.152;2022-10-30T03:22:05;6.00;;;3.20;;
946;SDS011;460;48.734;9.152;2022-10-30T03:24:32;4.70;;;2.70;;
946;SDS011;460;48.734;9.152;2022-10-30T03:27:00;2.23;;;2.07;;
946;SDS011;460;48.734;9.152;2022-10-30T03:29:28;2.70;;;2.20;;
946;SDS011;460;48.734;9.152;2022-10-30T03:31:55;5.13;;;2.73;;
946;SDS011;460;48.734;9.152;2022-10-30T03:34:22;2.53;;;2.00;;
946;SDS011;460;48.734;9.152;2022-10-30T03:36:49;2.27;;;2.07;;
946;SDS011;460;48.734;9.152;2022-10-30T03:39:16;3.00;;;2.80;;
946;SDS011;460;48.734;9.152;2022-10-30T03:41:43;2.17;;;1.97;;
946;SDS011;460;48.734;9.152;2022-10-30T03:44:10;2.40;;;2.07;;
946;SDS011;460;48.734;9.152;2022-10-30T03:46:38;5.60;;;2.80;;
946;SDS011;460;48.734;9.152;2022-10-30T03:49:06;3.30;;;2.03;;
946;SDS011;460;48.734;9.152;2022-10-30T03:51:33;2.57;;;2.37;;
946;SDS011;460;48.734;9.152;2022-10-30T03:54:00;3.23;;;2.53;;
946;SDS011;460;48.734;9.152;2022-10-30T03:56:27;2.20;;;2.00;;
946;SDS011;460;48.734;9.152;2022-10-30T03:58:55;3.60;;;1.93;;
946;SDS011;460;48.734;9.152;2022-10-30T04:01:22;2.93;;;2.03;;
946;SDS011;460;48.734;9.152;2022-10-30T04:03:50;2.97;;;2.53;;
946;SDS011;460;48.734;9.152;2022-10-30T04:06:18;2.67;;;2.47;;
946;SDS011;460;48.734;9.152;2022-10-30T04:08:45;2.03;;;1.90;;
946;SDS011;460;48.734;9.152;2022-10-30T04:11:12;2.90;;;2.10;;
946;SDS011;460;48.734;9.152;2022-10-30T04:13:39;2.30;;;1.60;;
946;SDS011;460;48.734;9.152;2022-10-30T04:16:06;4.30;;;3.10;;
946;SDS011;460;48.734;9.152;2022-10-30T04:18:33;5.50;;;2.20;;
946;SDS011;460;48.734;9.152;2022-10-30T04:21:01;4.47;;;2.13;;
946;SDS011;460;48.734;9.152;2022-10-30T04:23:28;1.80;;;1.63;;
946;SDS011;460;48.734;9.152;2022-10-30T04:25:55;2.67;;;2.47;;
946;SDS011;460;48.734;9.152;2022-10-30T04:28:24;5.10;;;1.90;;
946;SDS011;460;48.734;9.152;2022-10-30T04:30:51;2.57;;;2.23;;
946;SDS011;460;48.734;9.152;2022-10-30T04:33:18;3.80;;;2.83;;
946;SDS011;460;48.734;9.152;2022-10-30T04:35:45;2.73;;;1.67;;
946;SDS011;460;48.734;9.152;2022-10-30T04:38:13;4.13;;;2.50;;
946;SDS011;460;48.734;9.152;2022-10-30T04:40:43;2.67;;;2.40;;
946;SDS011;460;48.734;9.152;2022-10-30T04:43:10;3.00;;;2.37;;
946;SDS011;460;48.734;9.152;2022-10-30T04:45:38;4.03;;;2.50;;
946;SDS011;460;48.734;9.152;2022-10-30T04:48:06;2.33;;;2.10;;
946;SDS011;460;48.734;9.152;2022-10-30T04:50:35;3.07;;;2.70;;
946;SDS011;460;48.734;9.152;2022-10-30T04:53:03;2.93;;;2.73;;
946;SDS011;460;48.734;9.152;2022-10-30T04:55:33;2.87;;;2.67;;
946;SDS011;460;48.734;9.152;2022-10-30T04:58:00;2.80;;;2.23;;
946;SDS011;460;48.734;9.152;2022-10-30T05:00:28;3.60;;;3.10;;
946;SDS011;460;48.734;9.152;2022-10-30T05:02:57;4.43;;;3.20;;
946;SDS011;460;48.734;9.152;2022-10-30T05:05:25;1.93;;;1.80;;
946;SDS011;460;48.734;9.152;2022-10-30T05:07:52;5.60;;;2.80;;
946;SDS011;460;48.734;9.152;2022-10-30T05:10:19;1.97;;;1.77;;
946;SDS011;460;48.734;9.152;2022-10-30T05:12:49;3.93;;;2.47;;
946;SDS011;460;48.734;9.152;2022-10-30T05:15:17;3.17;;;2.87;;
946;SDS011;460;48.734;9.152;2022-10-30T05:17:43;3.70;;;3.30;;
946;SDS011;460;48.734;9.152;2022-10-30T05:20:10;2.87;;;2.33;;
946;SDS011;460;48.734;9.152;2022-10-30T05:22:37;4.90;;;2.70;;
946;SDS011;460;48.734;9.152;2022-10-30T05:25:04;9.83;;;3.03;;
946;SDS011;460;48.734;9.152;2022-10-30T05:27:32;2.80;;;2.53;;
946;SDS011;460;48.734;9.152;2022-10-30T05:30:00;2.77;;;2.00;;
946;SDS011;460;48.734;9.152;2022-10-30T05:32:27;4.50;;;2.87;;
946;SDS011;460;48.734;9.152;2022-10-30T05:34:54;3.77;;;3.33;;
946;SDS011;460;48.734;9.152;2022-10-30T05:37:21;7.10;;;2.63;;
946;SDS011;460;48.734;9.152;2022-10-30T05:39:47;3.10;;;2.87;;
946;SDS011;460;48.734;9.152;2022-10-30T05:42:14;4.03;;;2.70;;
946;SDS011;460;48.734;9.152;2022-10-30T05:44:41;4.07;;;2.20;;
946;SDS011;460;48.734;9.152;2022-10-30T05:47:10;6.50;;;2.47;;
946;SDS011;460;48.734;9.152;2022-10-30T05:49:37;3.20;;;2.83;;
946;SDS011;460;48.734;9.152;2022-10-30T05:52:04;3.30;;;2.60;;
946;SDS011;460;48.734;9.152;2022-10-30T05:54:31;2.50;;;2.30;;
946;SDS011;460;48.734;9.152;2022-10-30T05:56:58;3.47;;;3.17;;
946;SDS011;460;48.734;9.152;2022-10-30T05:59:25;6.27;;;2.83;;
946;SDS011;460;48.734;9.152;2022-10-30T06:01:51;1.63;;;1.53;;
946;SDS011;460;48.734;9.152;2022-10-30T06:04:21;3.03;;;2.20;;
946;SDS011;460;48.734;9.152;2022-10-30T06:06:48;5.30;;;2.63;;
946;SDS011;460;48.734;9.152;2022-10-30T06:09:15;3.10;;;2.30;;
946;SDS011;460;48.734;9.152;2022-10-30T06:11:42;3.83;;;3.03;;
946;SDS011;460;48.734;9.152;2022-10-30T06:14:09;3.07;;;2.70;;
946;SDS011;460;48.734;9.152;2022-10-30T06:16:36;2.27;;;2.00;;
946;SDS011;460;48.734;9.152;2022-10-30T06:19:03;3.10;;;2.30;;
946;SDS011;460;48.734;9.152;2022-10-30T06:21:31;5.13;;;2.73;;
946;SDS011;460;48.734;9.152;2022-10-30T06:23:58;2.80;;;2.40;;
946;SDS011;460;48.734;9.152;2022-10-30T06:26:25;3.60;;;2.60;;
946;SDS011;460;48.734;9.152;2022-10-30T06:28:51;2.03;;;1.90;;
946;SDS011;460;48.734;9.152;2022-10-30T06:31:18;2.33;;;2.13;;
946;SDS011;460;48.734;9.152;2022-10-30T06:33:45;3.17;;;2.90;;
946;SDS011;460;48.734;9.152;2022-10-30T06:36:12;3.80;;;3.43;;
946;SDS011;460;48.734;9.152;2022-10-30T06:38:42;3.57;;;2.70;;
946;SDS011;460;48.734;9.152;2022-10-30T06:41:09;2.90;;;2.70;;
946;SDS011;460;48.734;9.152;2022-10-30T06:43:36;4.93;;;2.27;;
946;SDS011;460;48.734;9.152;2022-10-30T06:46:03;5.10;;;2.60;;
946;SDS011;460;48.734;9.152;2022-10-30T06:48:30;2.80;;;2.10;;
946;SDS011;460;48.734;9.152;2022-10-30T06:50:58;3.07;;;2.77;;
946;SDS011;460;48.734;9.152;2022-10-30T06:53:27;3.07;;;2.00;;
946;SDS011;460;48.734;9.152;2022-10-30T06:55:56;4.30;;;3.03;;
946;SDS011;460;48.734;9.152;2022-10-30T06:58:24;7.90;;;2.70;;
946;SDS011;460;48.734;9.152;2022-10-30T07:00:51;2.50;;;2.30;;
946;SDS011;460;48.734;9.152;2022-10-30T07:03:18;2.60;;;2.40;;
946;SDS011;460;48.734;9.152;2022-10-30T07:05:45;3.50;;;3.00;;
946;SDS011;460;48.734;9.152;2022-10-30T07:08:12;3.93;;;2.20;;
946;SDS011;460;48.734;9.152;2022-10-30T07:10:39;5.90;;;2.80;;
946;SDS011;460;48.734;9.152;2022-10-30T07:13:08;2.90;;;2.53;;
946;SDS011;460;48.734;9.152;2022-10-30T07:15:35;6.27;;;3.43;;
946;SDS011;460;48.734;9.152;2022-10-30T07:18:02;2.93;;;2.40;;
946;SDS011;460;48.734;9.152;2022-10-30T07:20:30;2.63;;;2.43;;
946;SDS011;460;48.734;9.152;2022-10-30T07:22:58;2.50;;;2.20;;
946;SDS011;460;48.734;9.152;2022-10-30T07:25:26;3.77;;;2.47;;
946;SDS011;460;48.734;9.152;2022-10-30T07:27:53;3.67;;;2.10;;
946;SDS011;460;48.734;9.152;2022-10-30T07:30:23;3.40;;;1.97;;
946;SDS011;460;48.734;9.152;2022-10-30T07:32:58;4.03;;;2.00;;
946;SDS011;460;48.734;9.152;2022-10-30T07:35:26;2.30;;;2.10;;
946;SDS011;460;48.734;9.152;2022-10-30T07:37:53;2.47;;;2.27;;
946;SDS011;460;48.734;9.152;2022-10-30T07:40:21;2.37;;;2.20;;
946;SDS011;460;48.734;9.152;2022-10-30T07:42:48;1.60;;;1.47;;
946;SDS011;460;48.734;9.152;2022-10-30T07:45:20;3.20;;;1.90;;
946;SDS011;460;48.734;9.152;2022-10-30T07:47:48;2.07;;;1.97;;
946;SDS011;460;48.734;9.152;2022-10-30T07:50:15;3.20;;;2.73;;
946;SDS011;460;48.734;9.152;2022-10-30T07:52:42;3.77;;;2.57;;
946;SDS011;460;48.734;9.152;2022-10-30T07:55:09;3.80;;;1.93;;
946;SDS011;460;48.734;9.152;2022-10-30T07:57:36;4.50;;;2.67;;
946;SDS011;460;48.734;9.152;2022-10-30T08:00:04;4.60;;;2.33;;
946;SDS011;460;48.734;9.152;2022-10-30T08:02:33;1.90;;;1.80;;
946;SDS011;460;48.734;9.152;2022-10-30T08:05:02;3.20;;;2.70;;
946;SDS011;460;48.734;9.152;2022-10-30T08:07:31;2.53;;;2.33;;
946;SDS011;460;48.734;9.152;2022-10-30T08:09:59;5.23;;;2.57;;
946;SDS011;460;48.734;9.152;2022-10-30T08:12:26;3.20;;;2.90;;
946;SDS011;460;48.734;9.152;2022-10-30T08:14:53;2.93;;;2.47;;
946;SDS011;460;48.734;9.152;2022-10-30T08:17:20;3.03;;;2.03;;
946;SDS011;460;48.734;9.152;2022-10-30T08:19:48;4.87;;;3.10;;
946;SDS011;460;48.734;9.152;2022-10-30T08:22:16;2.73;;;2.40;;
946;SDS011;460;48.734;9.152;2022-10-30T08:24:43;3.23;;;2.40;;
946;SDS011;460;48.734;9.152;2022-10-30T08:27:10;2.70;;;2.50;;
946;SDS011;460;48.734;9.152;2022-10-30T08:29:37;4.10;;;2.77;;
946;SDS011;460;48.734;9.152;2022-10-30T08:32:04;4.23;;;2.77;;
946;SDS011;460;48.734;9.152;2022-10-30T08:34:31;3.93;;;2.30;;
946;SDS011;460;48.734;9.152;2022-10-30T08:36:59;2.87;;;2.33;;
946;SDS011;460;48.734;9.152;2022-10-30T08:39:27;5.63;;;2.30;;
946;SDS011;460;48.734;9.152;2022-10-30T08:41:55;2.00;;;1.90;;
946;SDS011;460;48.734;9.152;2022-10-30T08:44:23;2.63;;;2.10;;
946;SDS011;460;48.734;9.152;2022-10-30T08:46:50;3.37;;;2.17;;
946;SDS011;460;48.734;9.152;2022-10-30T08:49:16;2.43;;;2.23;;
946;SDS011;460;48.734;9.152;2022-10-30T08:51:44;8.63;;;2.63;;
946;SDS011;460;48.734;9.152;2022-10-30T08:54:10;3.47;;;1.97;;
946;SDS011;460;48.734;9.152;2022-10-30T08:56:39;3.43;;;1.40;;
946;SDS011;460;48.734;9.152;2022-10-30T08:59:06;4.17;;;2.37;;
946;SDS011;460;48.734;9.152;2022-10-30T09:01:33;2.20;;;2.00;;
946;SDS011;460;48.734;9.152;2022-10-30T09:04:00;2.10;;;1.93;;
946;SDS011;460;48.734;9.152;2022-10-30T09:06:28;2.20;;;2.07;;
946;SDS011;460;48.734;9.152;2022-10-30T09:08:55;2.77;;;2.30;;
946;SDS011;460;48.734;9.152;2022-10-30T09:11:22;2.73;;;2.47;;
946;SDS011;460;48.734;9.152;2022-10-30T09:13:50;3.63;;;2.07;;
946;SDS011;460;48.734;9.152;2022-10-30T09:16:17;2.07;;;1.87;;
946;SDS011;460;48.734;9.152;2022-10-30T09:18:44;2.00;;;1.90;;
946;SDS011;460;48.734;9.152;2022-10-30T09:21:11;1.67;;;1.47;;
946;SDS011;460;48.734;9.152;2022-10-30T09:23:38;1.60;;;1.50;;
946;SDS011;460;48.734;9.152;2022-10-30T09:26:04;2.77;;;2.13;;
946;SDS011;460;48.734;9.152;2022-10-30T09:28:31;2.47;;;2.27;;
946;SDS011;460;48.734;9.152;2022-10-30T09:31:01;2.13;;;1.93;;
946;SDS011;460;48.734;9.152;2022-10-30T09:33:28;1.60;;;1.50;;
946;SDS011;460;48.734;9.152;2022-10-30T09:35:55;2.27;;;2.07;;
946;SDS011;460;48.734;9.152;2022-10-30T09:38:22;1.73;;;1.60;;
946;SDS011;460;48.734;9.152;2022-10-30T09:40:52;2.10;;;1.73;;
946;SDS011;460;48.734;9.152;2022-10-30T09:43:36;1.80;;;1.70;;
946;SDS011;460;48.734;9.152;2022-10-30T09:46:15;1.83;;;1.50;;
946;SDS011;460;48.734;9.152;2022-10-30T09:49:04;3.17;;;2.23;;
946;SDS011;460;48.734;9.152;2022-10-30T09:51:53;2.00;;;1.80;;
946;SDS011;460;48.734;9.152;2022-10-30T09:54:35;2.27;;;1.77;;
946;SDS011;460;48.734;9.152;2022-10-30T09:57:19;2.17;;;1.97;;
946;SDS011;460;48.734;9.152;2022-10-30T09:59:57;3.10;;;2.03;;
946;SDS011;460;48.734;9.152;2022-10-30T10:02:32;3.93;;;2.50;;
946;SDS011;460;48.734;9.152;2022-10-30T10:05:03;2.13;;;1.97;;
946;SDS011;460;48.734;9.152;2022-10-30T10:07:38;2.83;;;1.90;;
946;SDS011;460;48.734;9.152;2022-10-30T10:10:10;2.40;;;2.20;;
946;SDS011;460;48.734;9.152;2022-10-30T10:12:42;3.97;;;2.33;;
946;SDS011;460;48.734;9.152;2022-10-30T10:15:13;1.90;;;1.80;;
946;SDS011;460;48.734;9.152;2022-10-30T10:17:47;2.60;;;1.87;;
946;SDS011;460;48.734;9.152;2022-10-30T10:20:15;2.90;;;2.20;;
946;SDS011;460;48.734;9.152;2022-10-30T10:22:51;3.03;;;2.17;;
946;SDS011;460;48.734;9.152;2022-10-30T10:25:18;3.40;;;1.83;;
946;SDS011;460;48.734;9.152;2022-10-30T10:27:49;4.10;;;2.00;;
946;SDS011;460;48.734;9.152;2022-10-30T10:30:28;3.00;;;1.90;;
946;SDS011;460;48.734;9.152;2022-10-30T10:33:11;1.73;;;1.63;;
946;SDS011;460;48.734;9.152;2022-10-30T10:35:56;4.63;;;2.60;;
946;SDS011;460;48.734;9.152;2022-10-30T10:38:44;3.03;;;2.17;;
946;SDS011;460;48.734;9.152;2022-10-30T10:41:23;2.70;;;1.80;;
946;SDS011;460;48.734;9.152;2022-10-30T10:44:00;2.30;;;1.73;;
946;SDS011;460;48.734;9.152;2022-10-30T10:46:49;1.73;;;1.53;;
946;SDS011;460;48.734;9.152;2022-10-30T10:49:30;2.80;;;2.17;;
946;SDS011;460;48.734;9.152;2022-10-30T10:52:12;3.53;;;1.83;;
946;SDS011;460;48.734;9.152;2022-10-30T10:54:43;2.60;;;2.27;;
946;SDS011;460;48.734;9.152;2022-10-30T10:57:13;2.90;;;2.50;;
946;SDS011;460;48.734;9.152;2022-10-30T10:59:48;2.40;;;1.40;;
946;SDS011;460;48.734;9.152;2022-10-30T11:02:23;1.67;;;1.57;;
946;SDS011;460;48.734;9.152;2022-10-30T11:04:58;2.30;;;2.07;;
946;SDS011;460;48.734;9.152;2022-10-30T11:07:31;2.00;;;1.87;;
946;SDS011;460;48.734;9.152;2022-10-30T11:10:00;1.53;;;1.43;;
946;SDS011;460;48.734;9.152;2022-10-30T11:12:28;2.83;;;1.67;;
946;SDS011;460;48.734;9.152;2022-10-30T11:15:02;2.80;;;2.10;;
946;SDS011;460;48.734;9.152;2022-10-30T11:17:40;2.70;;;1.83;;
946;SDS011;460;48.734;9.152;2022-10-30T11:20:18;1.50;;;1.37;;
946;SDS011;460;48.734;9.152;2022-10-30T11:22:49;2.20;;;2.00;;
946;SDS011;460;48.734;9.152;2022-10-30T11:25:19;1.97;;;1.70;;
946;SDS011;460;48.734;9.152;2022-10-30T11:27:47;2.60;;;2.40;;
946;SDS011;460;48.734;9.152;2022-10-30T11:30:20;2.80;;;1.87;;
946;SDS011;460;48.734;9.152;2022-10-30T11:32:48;2.40;;;2.00;;
946;SDS011;460;48.734;9.152;2022-10-30T11:35:16;2.40;;;1.80;;
946;SDS011;460;48.734;9.152;2022-10-30T11:37:46;3.00;;;2.23;;
946;SDS011;460;48.734;9.152;2022-10-30T11:40:15;2.07;;;1.77;;
946;SDS011;460;48.734;9.152;2022-10-30T11:42:44;3.33;;;1.90;;
946;SDS011;460;48.734;9.152;2022-10-30T11:45:14;2.37;;;1.60;;
946;SDS011;460;48.734;9.152;2022-10-30T11:47:43;1.97;;;1.80;;
946;SDS011;460;48.734;9.152;2022-10-30T11:50:15;2.87;;;2.40;;
946;SDS011;460;48.734;9.152;2022-10-30T11:52:46;1.60;;;1.50;;
946;SDS011;460;48.734;9.152;2022-10-30T11:55:18;2.00;;;1.77;;
946;SDS011;460;48.734;9.152;2022-10-30T11:57:49;3.93;;;2.63;;
946;SDS011;460;48.734;9.152;2022-10-30T12:00:20;2.67;;;2.23;;
946;SDS011;460;48.734;9.152;2022-10-30T12:02:50;1.53;;;1.43;;
946;SDS011;460;48.734;9.152;2022-10-30T12:08:15;6.83;;;2.43;;
946;SDS011;460;48.734;9.152;2022-10-30T12:10:44;2.23;;;2.03;;
946;SDS011;460;48.734;9.152;2022-10-30T12:13:19;3.33;;;3.03;;
946;SDS011;460;48.734;9.152;2022-10-30T12:15:48;9.20;;;1.90;;
946;SDS011;460;48.734;9.152;2022-10-30T12:18:27;3.47;;;3.10;;
946;SDS011;460;48.734;9.152;2022-10-30T12:20:56;3.87;;;2.27;;
946;SDS011;460;48.734;9.152;2022-10-30T12:23:24;3.83;;;1.93;;
946;SDS011;460;48.734;9.152;2022-10-30T12:25:53;2.47;;;2.13;;
946;SDS011;460;48.734;9.152;2022-10-30T12:28:22;2.50;;;2.30;;
946;SDS011;460;48.734;9.152;2022-10-30T12:30:51;3.40;;;1.87;;
946;SDS011;460;48.734;9.152;2022-10-30T12:33:23;4.87;;;1.83;;
946;SDS011;460;48.734;9.152;2022-10-30T12:35:53;2.60;;;2.40;;
946;SDS011;460;48.734;9.152;2022-10-30T12:38:25;2.30;;;2.20;;
946;SDS011;460;48.734;9.152;2022-10-30T12:41:00;3.07;;;1.97;;
946;SDS011;460;48.734;9.152;2022-10-30T12:43:35;6.23;;;2.20;;
946;SDS011;460;48.734;9.152;2022-10-30T12:46:13;2.23;;;2.10;;
946;SDS011;460;48.734;9.152;2022-10-30T12:48:49;3.50;;;1.77;;
946;SDS011;460;48.734;9.152;2022-10-30T12:51:19;2.20;;;1.97;;
946;SDS011;460;48.734;9.152;2022-10-30T12:53:55;2.40;;;2.07;;
946;SDS011;460;48.734;9.152;2022-10-30T12:56:27;6.83;;;2.60;;
946;SDS011;460;48.734;9.152;2022-10-30T12:58:59;1.67;;;1.57;;
946;SDS011;460;48.734;9.152;2022-10-30T13:01:39;5.07;;;2.40;;
946;SDS011;460;48.734;9.152;2022-10-30T13:04:12;2.07;;;1.97;;
946;SDS011;460;48.734;9.152;2022-10-30T13:06:44;4.03;;;3.60;;
946;SDS011;460;48.734;9.152;2022-10-30T13:09:17;3.00;;;2.43;;
946;SDS011;460;48.734;9.152;2022-10-30T13:11:50;5.53;;;2.07;;
946;SDS011;460;48.734;9.152;2022-10-30T13:14:21;2.80;;;2.00;;
946;SDS011;460;48.734;9.152;2022-10-30T13:16:53;2.23;;;2.00;;
946;SDS011;460;48.734;9.152;2022-10-30T13:19:19;3.40;;;2.27;;
946;SDS011;460;48.734;9.152;2022-10-30T13:21:48;4.57;;;2.07;;
946;SDS011;460;48.734;9.152;2022-10-30T13:24:22;2.50;;;2.30;;
946;SDS011;460;48.734;9.152;2022-10-30T13:27:09;5.03;;;2.30;;
946;SDS011;460;48.734;9.152;2022-10-30T13:29:43;1.40;;;1.30;;
946;SDS011;460;48.734;9.152;2022-10-30T13:32:23;2.00;;;1.27;;
946;SDS011;460;48.734;9.152;2022-10-30T13:34:57;2.30;;;1.80;;
946;SDS011;460;48.734;9.152;2022-10-30T13:37:35;3.70;;;1.70;;
946;SDS011;460;48.734;9.152;2022-10-30T13:40:14;3.17;;;1.93;;
946;SDS011;460;48.734;9.152;2022-10-30T13:42:49;1.77;;;1.53;;
946;SDS011;460;48.734;9.152;2022-10-30T13:45:34;2.30;;;1.87;;
946;SDS011;460;48.734;9.152;2022-10-30T13:48:15;3.23;;;1.80;;
946;SDS011;460;48.734;9.152;2022-10-30T13:51:03;1.60;;;1.50;;
946;SDS011;460;48.734;9.152;2022-10-30T13:53:42;1.60;;;1.50;;
946;SDS011;460;48.734;9.152;2022-10-30T13:56:16;2.00;;;1.63;;
946;SDS011;460;48.734;9.152;2022-10-30T13:58:46;1.53;;;1.43;;
946;SDS011;460;48.734;9.152;2022-10-30T14:01:21;1.67;;;1.50;;
946;SDS011;460;48.734;9.152;2022-10-30T14:03:51;2.60;;;1.47;;
946;SDS011;460;48.734;9.152;2022-10-30T14:06:30;5.00;;;2.23;;
946;SDS011;460;48.734;9.152;2022-10-30T14:09:05;2.40;;;1.10;;
946;SDS011;460;48.734;9.152;2022-10-30T14:11:39;1.93;;;1.43;;
946;SDS011;460;48.734;9.152;2022-10-30T14:14:24;5.90;;;1.10;;
946;SDS011;460;48.734;9.152;2022-10-30T14:17:11;1.23;;;1.23;;
946;SDS011;460;48.734;9.152;2022-10-30T14:25:31;1.70;;;1.20;;
946;SDS011;460;48.734;9.152;2022-10-30T14:28:00;2.37;;;1.70;;
946;SDS011;460;48.734;9.152;2022-10-30T14:30:27;1.07;;;0.80;;
946;SDS011;460;48.734;9.152;2022-10-30T14:32:54;1.93;;;1.40;;
946;SDS011;460;48.734;9.152;2022-10-30T14:35:28;2.50;;;1.50;;
946;SDS011;460;48.734;9.152;2022-10-30T14:38:21;2.40;;;1.97;;
946;SDS011;460;48.734;9.152;2022-10-30T14:41:04;2.73;;;2.27;;
946;SDS011;460;48.734;9.152;2022-10-30T14:44:01;2.20;;;1.70;;
946;SDS011;460;48.734;9.152;2022-10-30T14:46:42;3.27;;;1.90;;
946;SDS011;460;48.734;9.152;2022-10-30T14:52:14;1.60;;;1.50;;
946;SDS011;460;48.734;9.152;2022-10-30T14:54:48;3.57;;;2.83;;
946;SDS011;460;48.734;9.152;2022-10-30T14:57:43;2.90;;;2.27;;
946;SDS011;460;48.734;9.152;2022-10-30T15:00:35;4.47;;;2.67;;
946;SDS011;460;48.734;9.152;2022-10-30T15:03:04;5.83;;;1.93;;
946;SDS011;460;48.734;9.152;2022-10-30T15:05:38;3.40;;;2.17;;
946;SDS011;460;48.734;9.152;2022-10-30T15:08:13;2.80;;;2.60;;
946;SDS011;460;48.734;9.152;2022-10-30T15:11:21;2.43;;;2.00;;
946;SDS011;460;48.734;9.152;2022-10-30T15:13:58;3.80;;;1.83;;
946;SDS011;460;48.734;9.152;2022-10-30T15:16:29;2.80;;;2.40;;
946;SDS011;460;48.734;9.152;2022-10-30T15:19:01;3.90;;;2.60;;
946;SDS011;460;48.734;9.152;2022-10-30T15:21:31;1.73;;;1.50;;
946;SDS011;460;48.734;9.152;2022-10-30T15:24:07;3.13;;;2.10;;
946;SDS011;460;48.734;9.152;2022-10-30T15:26:39;4.50;;;2.23;;
946;SDS011;460;48.734;9.152;2022-10-30T15:29:10;2.23;;;1.47;;
946;SDS011;460;48.734;9.152;2022-10-30T15:31:43;6.63;;;2.33;;
946;SDS011;460;48.734;9.152;2022-10-30T15:34:18;2.53;;;2.33;;
946;SDS011;460;48.734;9.152;2022-10-30T15:36:47;5.07;;;2.90;;
946;SDS011;460;48.734;9.152;2022-10-30T15:39:14;3.77;;;2.97;;
946;SDS011;460;48.734;9.152;2022-10-30T15:41:44;4.30;;;3.30;;
946;SDS011;460;48.734;9.152;2022-10-30T15:44:14;8.37;;;4.33;;
946;SDS011;460;48.734;9.152;2022-10-30T15:46:46;6.93;;;5.33;;
946;SDS011;460;48.734;9.152;2022-10-30T15:49:14;6.80;;;3.80;;
946;SDS011;460;48.734;9.152;2022-10-30T15:51:45;10.63;;;5.30;;
946;SDS011;460;48.734;9.152;2022-10-30T15:54:13;4.70;;;3.90;;
946;SDS011;460;48.734;9.152;2022-10-30T15:56:45;6.87;;;5.60;;
946;SDS011;460;48.734;9.152;2022-10-30T15:59:16;5.00;;;4.27;;
946;SDS011;460;48.734;9.152;2022-10-30T16:01:48;4.97;;;4.47;;
946;SDS011;460;48.734;9.152;2022-10-30T16:04:18;9.10;;;4.30;;
946;SDS011;460;48.734;9.152;2022-10-30T16:06:47;3.57;;;3.27;;
946;SDS011;460;48.734;9.152;2022-10-30T16:09:16;3.83;;;2.90;;
946;SDS011;460;48.734;9.152;2022-10-30T16:11:43;3.87;;;2.83;;
946;SDS011;460;48.734;9.152;2022-10-30T16:14:12;4.03;;;3.10;;
946;SDS011;460;48.734;9.152;2022-10-30T16:16:42;3.33;;;2.30;;
946;SDS011;460;48.734;9.152;2022-10-30T16:19:14;3.73;;;2.90;;
946;SDS011;460;48.734;9.152;2022-10-30T16:21:45;3.53;;;3.23;;